sensor_id;sensor_type;location;lat;lon;timestamp;temperature;humidity
20125;DHT22;10223;50.862;4.360;2023-04-01T00:00:00;9.90;99.90
20125;DHT22;10223;50.862;4.360;2023-04-01T00:02:27;9.80;99.90
20125;DHT22;10223;50.862;4.360;2023-04-01T00:04:54;9.70;99.90
20125;DHT22;10223;50.862;4.360;2023-04-01T00:07:21;9.70;99.90
20125;DHT22;10223;50.862;4.360;2023-04-01T00:09:48;9.70;99.90
20125;DHT22;10223;50.862;4.360;2023-04-01T00:12:16;9.70;99.90
20125;DHT22;10223;50.862;4.360;2023-04-01T00:14:44;9.80;99.90
20125;DHT22;10223;50.862;4.360;2023-04-01T00:17:11;9.80;99.90
20125;DHT22;10223;50.862;4.360;2023-04-01T00:19:38;9.80;99.90
20125;DHT22;10223;50.862;4.360;2023-04-01T00:22:04;9.70;99.90
20125;DHT22;10223;50.862;4.360;2023-04-01T00:24:32;9.70;99.90
20125;DHT22;10223;50.862;4.360;2023-04-01T00:26:59;9.80;99.90
20125;DHT22;10223;50.862;4.360;2023-04-01T00:29:27;9.80;99.90
20125;DHT22;10223;50.862;4.360;2023-04-01T00:31:56;9.70;99.90
20125;DHT22;10223;50.862;4.360;2023-04-01T00:34:23;9.70;99.90
20125;DHT22;10223;50.862;4.360;2023-04-01T00:36:51;9.70;99.90
20125;DHT22;10223;50.862;4.360;2023-04-01T00:39:22;9.70;99.90
20125;DHT22;10223;50.862;4.360;2023-04-01T00:41:50;9.70;99.90
20125;DHT22;10223;50.862;4.360;2023-04-01T00:44:19;9.60;99.90
20125;DHT22;10223;50.862;4.360;2023-04-01T00:46:49;9.60;99.90
20125;DHT22;10223;50.862;4.360;2023-04-01T00:49:19;9.60;99.90
20125;DHT22;10223;50.862;4.360;2023-04-01T00:51:49;9.70;99.90
20125;DHT22;10223;50.862;4.360;2023-04-01T00:54:18;9.70;99.90
20125;DHT22;10223;50.862;4.360;2023-04-01T00:56:48;9.70;99.90
20125;DHT22;10223;50.862;4.360;2023-04-01T00:59:23;9.70;99.90
20125;DHT22;10223;50.862;4.360;2023-04-01T01:01:51;9.70;99.90
20125;DHT22;10223;50.862;4.360;2023-04-01T01:04:22;9.90;99.90
20125;DHT22;10223;50.862;4.360;2023-04-01T01:07:00;9.70;99.90
20125;DHT22;10223;50.862;4.360;2023-04-01T01:09:35;9.80;99.90
20125;DHT22;10223;50.862;4.360;2023-04-01T01:12:08;9.80;99.90
20125;DHT22;10223;50.862;4.360;2023-04-01T01:14:47;9.80;99.90
20125;DHT22;10223;50.862;4.360;2023-04-01T01:17:23;9.80;99.90
20125;DHT22;10223;50.862;4.360;2023-04-01T01:26:34;9.80;99.90
20125;DHT22;10223;50.862;4.360;2023-04-01T01:29:11;9.80;99.90
20125;DHT22;10223;50.862;4.360;2023-04-01T01:31:48;9.80;99.90
20125;DHT22;10223;50.862;4.360;2023-04-01T01:34:21;9.80;99.90
20125;DHT22;10223;50.862;4.360;2023-04-01T01:36:55;9.80;99.90
20125;DHT22;10223;50.862;4.360;2023-04-01T01:39:27;9.80;99.90
20125;DHT22;10223;50.862;4.360;2023-04-01T01:41:57;9.80;99.90
20125;DHT22;10223;50.862;4.360;2023-04-01T01:44:28;9.80;99.90
20125;DHT22;10223;50.862;4.360;2023-04-01T01:46:56;9.80;99.90
20125;DHT22;10223;50.862;4.360;2023-04-01T01:49:24;9.90;99.90
20125;DHT22;10223;50.862;4.360;2023-04-01T01:51:53;9.90;99.90
20125;DHT22;10223;50.862;4.360;2023-04-01T01:54:20;9.90;99.90
20125;DHT22;10223;50.862;4.360;2023-04-01T01:56:50;9.80;99.90
20125;DHT22;10223;50.862;4.360;2023-04-01T01:59:19;9.80;99.90
20125;DHT22;10223;50.862;4.360;2023-04-01T02:01:50;9.80;99.90
20125;DHT22;10223;50.862;4.360;2023-04-01T02:04:18;9.70;99.90
20125;DHT22;10223;50.862;4.360;2023-04-01T02:06:49;9.70;99.90
20125;DHT22;10223;50.862;4.360;2023-04-01T02:09:20;9.80;99.90
20125;DHT22;10223;50.862;4.360;2023-04-01T02:11:49;9.80;99.90
20125;DHT22;10223;50.862;4.360;2023-04-01T02:14:19;9.80;99.90
20125;DHT22;10223;50.862;4.360;2023-04-01T02:16:51;9.80;99.90
20125;DHT22;10223;50.862;4.360;2023-04-01T02:19:22;9.70;99.90
20125;DHT22;10223;50.862;4.360;2023-04-01T02:21:55;9.80;99.90
20125;DHT22;10223;50.862;4.360;2023-04-01T02:24:27;9.80;99.90
20125;DHT22;10223;50.862;4.360;2023-04-01T02:26:54;9.80;99.90
20125;DHT22;10223;50.862;4.360;2023-04-01T02:29:23;9.90;99.90
20125;DHT22;10223;50.862;4.360;2023-04-01T02:31:52;9.80;99.90
20125;DHT22;10223;50.862;4.360;2023-04-01T02:34:20;9.80;99.90
20125;DHT22;10223;50.862;4.360;2023-04-01T02:36:48;9.70;99.90
20125;DHT22;10223;50.862;4.360;2023-04-01T02:39:16;9.70;99.90
20125;DHT22;10223;50.862;4.360;2023-04-01T02:41:45;9.70;99.90
20125;DHT22;10223;50.862;4.360;2023-04-01T02:44:14;9.60;99.90
20125;DHT22;10223;50.862;4.360;2023-04-01T02:46:42;9.70;99.90
20125;DHT22;10223;50.862;4.360;2023-04-01T02:49:09;9.70;99.90
20125;DHT22;10223;50.862;4.360;2023-04-01T02:51:36;9.70;99.90
20125;DHT22;10223;50.862;4.360;2023-04-01T02:54:03;9.60;99.90
20125;DHT22;10223;50.862;4.360;2023-04-01T02:56:30;9.60;99.90
20125;DHT22;10223;50.862;4.360;2023-04-01T02:58:58;9.60;99.90
20125;DHT22;10223;50.862;4.360;2023-04-01T03:01:25;9.60;99.90
20125;DHT22;10223;50.862;4.360;2023-04-01T03:03:52;9.80;99.90
20125;DHT22;10223;50.862;4.360;2023-04-01T03:06:19;9.60;99.90
20125;DHT22;10223;50.862;4.360;2023-04-01T03:08:46;9.70;99.90
20125;DHT22;10223;50.862;4.360;2023-04-01T03:11:13;9.70;99.90
20125;DHT22;10223;50.862;4.360;2023-04-01T03:13:40;9.70;99.90
20125;DHT22;10223;50.862;4.360;2023-04-01T03:16:08;9.70;99.90
20125;DHT22;10223;50.862;4.360;2023-04-01T03:18:35;9.70;99.90
20125;DHT22;10223;50.862;4.360;2023-04-01T03:21:16;9.70;99.90
20125;DHT22;10223;50.862;4.360;2023-04-01T03:23:43;9.70;99.90
20125;DHT22;10223;50.862;4.360;2023-04-01T03:26:10;9.70;99.90
20125;DHT22;10223;50.862;4.360;2023-04-01T03:28:37;9.70;99.90
20125;DHT22;10223;50.862;4.360;2023-04-01T03:31:05;9.70;99.90
20125;DHT22;10223;50.862;4.360;2023-04-01T03:33:33;9.70;99.90
20125;DHT22;10223;50.862;4.360;2023-04-01T03:36:00;9.80;99.90
20125;DHT22;10223;50.862;4.360;2023-04-01T03:38:28;9.80;99.90
20125;DHT22;10223;50.862;4.360;2023-04-01T03:40:55;9.70;99.90
20125;DHT22;10223;50.862;4.360;2023-04-01T03:43:22;9.80;99.90
20125;DHT22;10223;50.862;4.360;2023-04-01T03:45:50;9.70;99.90
20125;DHT22;10223;50.862;4.360;2023-04-01T03:48:18;9.80;99.90
20125;DHT22;10223;50.862;4.360;2023-04-01T03:50:47;9.80;99.90
20125;DHT22;10223;50.862;4.360;2023-04-01T03:53:14;9.80;99.90
20125;DHT22;10223;50.862;4.360;2023-04-01T03:55:40;9.80;99.90
20125;DHT22;10223;50.862;4.360;2023-04-01T03:58:08;9.80;99.90
20125;DHT22;10223;50.862;4.360;2023-04-01T04:00:36;9.70;99.90
20125;DHT22;10223;50.862;4.360;2023-04-01T04:03:03;9.80;99.90
20125;DHT22;10223;50.862;4.360;2023-04-01T04:05:29;9.80;99.90
20125;DHT22;10223;50.862;4.360;2023-04-01T04:07:58;9.70;99.90
20125;DHT22;10223;50.862;4.360;2023-04-01T04:10:25;9.70;99.90
20125;DHT22;10223;50.862;4.360;2023-04-01T04:12:52;9.80;99.90
20125;DHT22;10223;50.862;4.360;2023-04-01T04:15:19;9.70;99.90
20125;DHT22;10223;50.862;4.360;2023-04-01T04:17:47;9.70;99.90
20125;DHT22;10223;50.862;4.360;2023-04-01T04:20:14;9.70;99.90
20125;DHT22;10223;50.862;4.360;2023-04-01T04:22:41;9.70;99.90
20125;DHT22;10223;50.862;4.360;2023-04-01T04:25:09;9.70;99.90
20125;DHT22;10223;50.862;4.360;2023-04-01T04:27:36;9.70;99.90
20125;DHT22;10223;50.862;4.360;2023-04-01T04:30:08;9.70;99.90
20125;DHT22;10223;50.862;4.360;2023-04-01T04:32:35;9.60;99.90
20125;DHT22;10223;50.862;4.360;2023-04-01T04:35:03;9.60;99.90
20125;DHT22;10223;50.862;4.360;2023-04-01T04:37:31;9.60;99.90
20125;DHT22;10223;50.862;4.360;2023-04-01T04:39:58;9.50;99.90
20125;DHT22;10223;50.862;4.360;2023-04-01T04:42:27;9.60;99.90
20125;DHT22;10223;50.862;4.360;2023-04-01T04:44:54;9.60;99.90
20125;DHT22;10223;50.862;4.360;2023-04-01T04:47:21;9.60;99.90
20125;DHT22;10223;50.862;4.360;2023-04-01T04:49:48;9.60;99.90
20125;DHT22;10223;50.862;4.360;2023-04-01T04:52:15;9.60;99.90
20125;DHT22;10223;50.862;4.360;2023-04-01T04:54:42;9.50;99.90
20125;DHT22;10223;50.862;4.360;2023-04-01T04:57:09;9.50;99.90
20125;DHT22;10223;50.862;4.360;2023-04-01T04:59:37;9.50;99.90
20125;DHT22;10223;50.862;4.360;2023-04-01T05:02:04;9.50;99.90
20125;DHT22;10223;50.862;4.360;2023-04-01T05:04:34;9.50;99.90
20125;DHT22;10223;50.862;4.360;2023-04-01T05:07:02;9.50;99.90
20125;DHT22;10223;50.862;4.360;2023-04-01T05:09:29;9.50;99.90
20125;DHT22;10223;50.862;4.360;2023-04-01T05:11:56;9.50;99.90
20125;DHT22;10223;50.862;4.360;2023-04-01T05:14:23;9.50;99.90
20125;DHT22;10223;50.862;4.360;2023-04-01T05:16:51;9.50;99.90
20125;DHT22;10223;50.862;4.360;2023-04-01T05:19:19;9.60;99.90
20125;DHT22;10223;50.862;4.360;2023-04-01T05:21:46;9.60;99.90
20125;DHT22;10223;50.862;4.360;2023-04-01T05:24:13;9.60;99.90
20125;DHT22;10223;50.862;4.360;2023-04-01T05:26:40;9.60;99.90
20125;DHT22;10223;50.862;4.360;2023-04-01T05:29:07;9.60;99.90
20125;DHT22;10223;50.862;4.360;2023-04-01T05:31:34;9.50;99.90
20125;DHT22;10223;50.862;4.360;2023-04-01T05:34:02;9.50;99.90
20125;DHT22;10223;50.862;4.360;2023-04-01T05:36:29;9.50;99.90
20125;DHT22;10223;50.862;4.360;2023-04-01T05:38:56;9.50;99.90
20125;DHT22;10223;50.862;4.360;2023-04-01T05:41:23;9.50;99.90
20125;DHT22;10223;50.862;4.360;2023-04-01T05:43:50;9.50;99.90
20125;DHT22;10223;50.862;4.360;2023-04-01T05:46:17;9.50;99.90
20125;DHT22;10223;50.862;4.360;2023-04-01T05:48:44;9.40;99.90
20125;DHT22;10223;50.862;4.360;2023-04-01T05:51:14;9.60;99.90
20125;DHT22;10223;50.862;4.360;2023-04-01T05:53:41;9.50;99.90
20125;DHT22;10223;50.862;4.360;2023-04-01T05:56:08;9.60;99.90
20125;DHT22;10223;50.862;4.360;2023-04-01T05:58:36;9.50;99.90
20125;DHT22;10223;50.862;4.360;2023-04-01T06:01:04;9.50;99.90
20125;DHT22;10223;50.862;4.360;2023-04-01T06:03:32;9.50;99.90
20125;DHT22;10223;50.862;4.360;2023-04-01T06:05:59;9.60;99.90
20125;DHT22;10223;50.862;4.360;2023-04-01T06:08:29;9.50;99.90
20125;DHT22;10223;50.862;4.360;2023-04-01T06:11:13;9.60;99.90
20125;DHT22;10223;50.862;4.360;2023-04-01T06:14:00;9.60;99.90
20125;DHT22;10223;50.862;4.360;2023-04-01T06:16:42;9.60;99.90
20125;DHT22;10223;50.862;4.360;2023-04-01T06:19:27;9.60;99.90
20125;DHT22;10223;50.862;4.360;2023-04-01T06:22:27;9.70;99.90
20125;DHT22;10223;50.862;4.360;2023-04-01T06:25:13;9.60;99.90
20125;DHT22;10223;50.862;4.360;2023-04-01T06:27:54;9.50;99.90
20125;DHT22;10223;50.862;4.360;2023-04-01T06:30:38;9.50;99.90
20125;DHT22;10223;50.862;4.360;2023-04-01T06:33:20;9.50;99.90
20125;DHT22;10223;50.862;4.360;2023-04-01T06:36:22;9.40;99.90
20125;DHT22;10223;50.862;4.360;2023-04-01T06:39:12;9.40;99.90
20125;DHT22;10223;50.862;4.360;2023-04-01T06:42:13;9.60;99.90
20125;DHT22;10223;50.862;4.360;2023-04-01T06:44:51;9.50;99.90
20125;DHT22;10223;50.862;4.360;2023-04-01T06:47:32;9.60;99.90
20125;DHT22;10223;50.862;4.360;2023-04-01T06:50:11;9.50;99.90
20125;DHT22;10223;50.862;4.360;2023-04-01T06:52:50;9.50;99.90
20125;DHT22;10223;50.862;4.360;2023-04-01T06:55:27;9.50;99.90
20125;DHT22;10223;50.862;4.360;2023-04-01T06:57:58;9.60;99.90
20125;DHT22;10223;50.862;4.360;2023-04-01T07:00:30;9.50;99.90
20125;DHT22;10223;50.862;4.360;2023-04-01T07:03:04;9.50;99.90
20125;DHT22;10223;50.862;4.360;2023-04-01T07:05:34;9.50;99.90
20125;DHT22;10223;50.862;4.360;2023-04-01T07:08:03;9.50;99.90
20125;DHT22;10223;50.862;4.360;2023-04-01T07:10:35;9.50;99.90
20125;DHT22;10223;50.862;4.360;2023-04-01T07:13:13;9.70;99.90
20125;DHT22;10223;50.862;4.360;2023-04-01T07:15:54;9.60;99.90
20125;DHT22;10223;50.862;4.360;2023-04-01T07:18:25;9.70;99.90
20125;DHT22;10223;50.862;4.360;2023-04-01T07:20:55;9.70;99.90
20125;DHT22;10223;50.862;4.360;2023-04-01T07:23:24;9.70;99.90
20125;DHT22;10223;50.862;4.360;2023-04-01T07:25:55;9.80;99.90
20125;DHT22;10223;50.862;4.360;2023-04-01T07:28:26;9.70;99.90
20125;DHT22;10223;50.862;4.360;2023-04-01T07:31:07;9.70;99.90
20125;DHT22;10223;50.862;4.360;2023-04-01T07:33:39;9.60;99.90
20125;DHT22;10223;50.862;4.360;2023-04-01T07:36:14;9.70;99.90
20125;DHT22;10223;50.862;4.360;2023-04-01T07:38:54;9.60;99.90
20125;DHT22;10223;50.862;4.360;2023-04-01T07:41:30;9.60;99.90
20125;DHT22;10223;50.862;4.360;2023-04-01T07:44:06;9.60;99.90
20125;DHT22;10223;50.862;4.360;2023-04-01T07:49:33;9.70;99.90
20125;DHT22;10223;50.862;4.360;2023-04-01T07:52:08;9.70;99.90
20125;DHT22;10223;50.862;4.360;2023-04-01T07:54:44;9.60;99.90
20125;DHT22;10223;50.862;4.360;2023-04-01T07:57:19;9.70;99.90
20125;DHT22;10223;50.862;4.360;2023-04-01T07:59:58;9.60;99.90
20125;DHT22;10223;50.862;4.360;2023-04-01T08:02:34;9.60;99.90
20125;DHT22;10223;50.862;4.360;2023-04-01T08:05:14;9.70;99.90
20125;DHT22;10223;50.862;4.360;2023-04-01T08:07:48;9.60;99.90
20125;DHT22;10223;50.862;4.360;2023-04-01T08:10:21;9.60;99.90
20125;DHT22;10223;50.862;4.360;2023-04-01T08:12:57;9.60;99.90
20125;DHT22;10223;50.862;4.360;2023-04-01T08:15:33;9.70;99.90
20125;DHT22;10223;50.862;4.360;2023-04-01T08:18:13;9.60;99.90
20125;DHT22;10223;50.862;4.360;2023-04-01T08:20:46;9.70;99.90
20125;DHT22;10223;50.862;4.360;2023-04-01T08:23:16;9.60;99.90
20125;DHT22;10223;50.862;4.360;2023-04-01T08:25:50;9.70;99.90
20125;DHT22;10223;50.862;4.360;2023-04-01T08:28:22;9.70;99.90
20125;DHT22;10223;50.862;4.360;2023-04-01T08:30:55;9.60;99.90
20125;DHT22;10223;50.862;4.360;2023-04-01T08:33:26;9.60;99.90
20125;DHT22;10223;50.862;4.360;2023-04-01T08:35:57;9.70;99.90
20125;DHT22;10223;50.862;4.360;2023-04-01T08:38:31;9.70;99.90
20125;DHT22;10223;50.862;4.360;2023-04-01T08:41:01;9.70;99.90
20125;DHT22;10223;50.862;4.360;2023-04-01T08:43:55;9.70;99.90
20125;DHT22;10223;50.862;4.360;2023-04-01T08:49:44;9.80;99.90
20125;DHT22;10223;50.862;4.360;2023-04-01T08:52:26;9.90;99.90
20125;DHT22;10223;50.862;4.360;2023-04-01T08:55:21;9.90;99.90
20125;DHT22;10223;50.862;4.360;2023-04-01T08:58:04;9.90;99.90
20125;DHT22;10223;50.862;4.360;2023-04-01T09:00:44;9.80;99.90
20125;DHT22;10223;50.862;4.360;2023-04-01T09:03:37;9.80;99.90
20125;DHT22;10223;50.862;4.360;2023-04-01T09:06:27;9.70;99.90
20125;DHT22;10223;50.862;4.360;2023-04-01T09:09:21;9.70;99.90
20125;DHT22;10223;50.862;4.360;2023-04-01T09:12:24;9.80;99.90
20125;DHT22;10223;50.862;4.360;2023-04-01T09:15:12;9.80;99.90
20125;DHT22;10223;50.862;4.360;2023-04-01T09:18:28;9.70;99.90
20125;DHT22;10223;50.862;4.360;2023-04-01T09:24:22;9.80;99.90
20125;DHT22;10223;50.862;4.360;2023-04-01T09:27:03;9.90;99.90
20125;DHT22;10223;50.862;4.360;2023-04-01T09:30:00;9.90;99.90
20125;DHT22;10223;50.862;4.360;2023-04-01T09:33:09;10.00;99.90
20125;DHT22;10223;50.862;4.360;2023-04-01T09:35:47;10.00;99.90
20125;DHT22;10223;50.862;4.360;2023-04-01T09:38:21;10.10;99.90
20125;DHT22;10223;50.862;4.360;2023-04-01T09:40:55;10.00;99.90
20125;DHT22;10223;50.862;4.360;2023-04-01T09:43:27;10.00;99.90
20125;DHT22;10223;50.862;4.360;2023-04-01T09:52:02;10.20;99.90
20125;DHT22;10223;50.862;4.360;2023-04-01T09:54:43;10.20;99.90
20125;DHT22;10223;50.862;4.360;2023-04-01T10:09:55;10.10;99.90
20125;DHT22;10223;50.862;4.360;2023-04-01T10:19:12;10.30;99.90
20125;DHT22;10223;50.862;4.360;2023-04-01T10:22:04;10.20;99.90
20125;DHT22;10223;50.862;4.360;2023-04-01T10:27:55;10.30;99.90
20125;DHT22;10223;50.862;4.360;2023-04-01T10:33:52;10.40;99.90
20125;DHT22;10223;50.862;4.360;2023-04-01T10:36:51;10.30;99.90
20125;DHT22;10223;50.862;4.360;2023-04-01T10:42:54;10.50;99.90
20125;DHT22;10223;50.862;4.360;2023-04-01T10:45:59;10.50;99.90
20125;DHT22;10223;50.862;4.360;2023-04-01T10:49:07;10.70;99.90
20125;DHT22;10223;50.862;4.360;2023-04-01T10:52:19;10.70;99.90
20125;DHT22;10223;50.862;4.360;2023-04-01T10:55:04;10.60;99.90
20125;DHT22;10223;50.862;4.360;2023-04-01T11:01:07;10.60;99.90
20125;DHT22;10223;50.862;4.360;2023-04-01T11:04:07;10.60;99.90
20125;DHT22;10223;50.862;4.360;2023-04-01T11:13:21;10.50;99.90
20125;DHT22;10223;50.862;4.360;2023-04-01T11:19:20;10.70;99.90
20125;DHT22;10223;50.862;4.360;2023-04-01T11:22:06;10.70;99.90
20125;DHT22;10223;50.862;4.360;2023-04-01T11:25:00;10.80;99.90
20125;DHT22;10223;50.862;4.360;2023-04-01T11:28:03;10.70;99.90
20125;DHT22;10223;50.862;4.360;2023-04-01T11:30:49;10.70;99.90
20125;DHT22;10223;50.862;4.360;2023-04-01T11:33:23;10.70;99.90
20125;DHT22;10223;50.862;4.360;2023-04-01T11:38:54;10.70;99.90
20125;DHT22;10223;50.862;4.360;2023-04-01T11:41:33;10.60;99.90
20125;DHT22;10223;50.862;4.360;2023-04-01T11:44:15;10.60;99.90
20125;DHT22;10223;50.862;4.360;2023-04-01T11:46:53;10.60;99.90
20125;DHT22;10223;50.862;4.360;2023-04-01T11:49:36;10.80;99.90
20125;DHT22;10223;50.862;4.360;2023-04-01T11:52:31;10.80;99.90
20125;DHT22;10223;50.862;4.360;2023-04-01T11:55:19;10.80;99.90
20125;DHT22;10223;50.862;4.360;2023-04-01T11:58:04;10.80;99.90
20125;DHT22;10223;50.862;4.360;2023-04-01T12:00:58;10.90;99.90
20125;DHT22;10223;50.862;4.360;2023-04-01T12:03:46;10.80;99.90
20125;DHT22;10223;50.862;4.360;2023-04-01T12:06:19;10.90;99.90
20125;DHT22;10223;50.862;4.360;2023-04-01T12:08:54;10.80;99.90
20125;DHT22;10223;50.862;4.360;2023-04-01T12:11:27;10.80;99.90
20125;DHT22;10223;50.862;4.360;2023-04-01T12:14:05;10.80;99.90
20125;DHT22;10223;50.862;4.360;2023-04-01T12:16:46;10.80;99.90
20125;DHT22;10223;50.862;4.360;2023-04-01T12:19:24;10.90;99.90
20125;DHT22;10223;50.862;4.360;2023-04-01T12:22:08;10.90;99.90
20125;DHT22;10223;50.862;4.360;2023-04-01T12:24:46;11.00;99.90
20125;DHT22;10223;50.862;4.360;2023-04-01T12:27:26;10.90;99.90
20125;DHT22;10223;50.862;4.360;2023-04-01T12:30:18;10.90;99.90
20125;DHT22;10223;50.862;4.360;2023-04-01T12:32:56;10.80;99.90
20125;DHT22;10223;50.862;4.360;2023-04-01T12:35:33;10.60;99.90
20125;DHT22;10223;50.862;4.360;2023-04-01T12:38:14;10.50;99.90
20125;DHT22;10223;50.862;4.360;2023-04-01T12:40:50;10.50;99.90
20125;DHT22;10223;50.862;4.360;2023-04-01T12:43:44;10.50;99.90
20125;DHT22;10223;50.862;4.360;2023-04-01T12:46:19;10.40;99.90
20125;DHT22;10223;50.862;4.360;2023-04-01T12:49:20;10.40;99.90
20125;DHT22;10223;50.862;4.360;2023-04-01T12:52:09;10.50;99.90
20125;DHT22;10223;50.862;4.360;2023-04-01T12:55:14;10.50;99.90
20125;DHT22;10223;50.862;4.360;2023-04-01T12:57:55;10.40;99.90
20125;DHT22;10223;50.862;4.360;2023-04-01T13:00:35;10.40;99.90
20125;DHT22;10223;50.862;4.360;2023-04-01T13:03:23;10.40;99.90
20125;DHT22;10223;50.862;4.360;2023-04-01T13:06:09;10.40;99.90
20125;DHT22;10223;50.862;4.360;2023-04-01T13:08:49;10.30;99.90
20125;DHT22;10223;50.862;4.360;2023-04-01T13:11:24;10.40;99.90
20125;DHT22;10223;50.862;4.360;2023-04-01T13:14:18;10.40;99.90
20125;DHT22;10223;50.862;4.360;2023-04-01T13:16:53;10.50;99.90
20125;DHT22;10223;50.862;4.360;2023-04-01T13:19:28;10.50;99.90
20125;DHT22;10223;50.862;4.360;2023-04-01T13:22:04;10.50;99.90
20125;DHT22;10223;50.862;4.360;2023-04-01T13:24:41;10.50;99.90
20125;DHT22;10223;50.862;4.360;2023-04-01T13:27:16;10.40;99.90
20125;DHT22;10223;50.862;4.360;2023-04-01T13:29:57;10.50;99.90
20125;DHT22;10223;50.862;4.360;2023-04-01T13:32:30;10.60;99.90
20125;DHT22;10223;50.862;4.360;2023-04-01T13:35:12;10.60;99.90
20125;DHT22;10223;50.862;4.360;2023-04-01T13:37:54;10.40;99.90
20125;DHT22;10223;50.862;4.360;2023-04-01T13:40:33;10.50;99.90
20125;DHT22;10223;50.862;4.360;2023-04-01T13:43:12;10.40;99.90
20125;DHT22;10223;50.862;4.360;2023-04-01T13:48:45;10.40;99.90
20125;DHT22;10223;50.862;4.360;2023-04-01T13:54:25;10.40;99.90
20125;DHT22;10223;50.862;4.360;2023-04-01T13:57:14;10.40;99.90
20125;DHT22;10223;50.862;4.360;2023-04-01T14:03:10;10.40;99.90
20125;DHT22;10223;50.862;4.360;2023-04-01T14:05:51;10.60;99.90
20125;DHT22;10223;50.862;4.360;2023-04-01T14:08:47;10.50;99.90
20125;DHT22;10223;50.862;4.360;2023-04-01T14:11:24;10.70;99.90
20125;DHT22;10223;50.862;4.360;2023-04-01T14:13:59;10.70;99.90
20125;DHT22;10223;50.862;4.360;2023-04-01T14:16:59;10.80;99.90
20125;DHT22;10223;50.862;4.360;2023-04-01T14:19:59;10.80;99.90
20125;DHT22;10223;50.862;4.360;2023-04-01T14:22:34;10.80;99.90
20125;DHT22;10223;50.862;4.360;2023-04-01T14:25:25;10.70;99.90
20125;DHT22;10223;50.862;4.360;2023-04-01T14:28:03;10.80;99.90
20125;DHT22;10223;50.862;4.360;2023-04-01T14:30:43;10.70;99.90
20125;DHT22;10223;50.862;4.360;2023-04-01T14:33:26;10.70;99.90
20125;DHT22;10223;50.862;4.360;2023-04-01T14:36:08;10.70;99.90
20125;DHT22;10223;50.862;4.360;2023-04-01T14:38:47;10.70;99.90
20125;DHT22;10223;50.862;4.360;2023-04-01T14:41:21;10.70;99.90
20125;DHT22;10223;50.862;4.360;2023-04-01T14:44:05;10.80;99.90
20125;DHT22;10223;50.862;4.360;2023-04-01T14:49:53;10.70;99.90
20125;DHT22;10223;50.862;4.360;2023-04-01T14:52:28;10.70;99.90
20125;DHT22;10223;50.862;4.360;2023-04-01T14:54:57;10.60;99.90
20125;DHT22;10223;50.862;4.360;2023-04-01T14:57:27;10.70;99.90
20125;DHT22;10223;50.862;4.360;2023-04-01T15:00:00;10.60;99.90
20125;DHT22;10223;50.862;4.360;2023-04-01T15:02:37;10.80;99.90
20125;DHT22;10223;50.862;4.360;2023-04-01T15:05:16;10.80;99.90
20125;DHT22;10223;50.862;4.360;2023-04-01T15:08:13;10.80;99.90
20125;DHT22;10223;50.862;4.360;2023-04-01T15:10:57;10.70;99.90
20125;DHT22;10223;50.862;4.360;2023-04-01T15:13:57;10.60;99.90
20125;DHT22;10223;50.862;4.360;2023-04-01T15:16:33;10.60;99.90
20125;DHT22;10223;50.862;4.360;2023-04-01T15:19:12;10.50;99.90
20125;DHT22;10223;50.862;4.360;2023-04-01T15:22:07;10.50;99.90
20125;DHT22;10223;50.862;4.360;2023-04-01T15:24:46;10.70;99.90
20125;DHT22;10223;50.862;4.360;2023-04-01T15:27:37;10.70;99.90
20125;DHT22;10223;50.862;4.360;2023-04-01T15:30:21;10.60;99.90
20125;DHT22;10223;50.862;4.360;2023-04-01T15:33:07;10.60;99.90
20125;DHT22;10223;50.862;4.360;2023-04-01T15:35:46;10.60;99.90
20125;DHT22;10223;50.862;4.360;2023-04-01T15:38:24;10.60;99.90
20125;DHT22;10223;50.862;4.360;2023-04-01T15:40:57;10.40;99.90
20125;DHT22;10223;50.862;4.360;2023-04-01T15:43:35;10.40;99.90
20125;DHT22;10223;50.862;4.360;2023-04-01T15:46:21;10.50;99.90
20125;DHT22;10223;50.862;4.360;2023-04-01T15:49:03;10.50;99.90
20125;DHT22;10223;50.862;4.360;2023-04-01T15:51:54;10.40;99.90
20125;DHT22;10223;50.862;4.360;2023-04-01T15:57:32;10.40;99.90
20125;DHT22;10223;50.862;4.360;2023-04-01T16:14:07;10.10;99.90
20125;DHT22;10223;50.862;4.360;2023-04-01T16:17:24;10.10;99.90
20125;DHT22;10223;50.862;4.360;2023-04-01T16:20:02;10.00;99.90
20125;DHT22;10223;50.862;4.360;2023-04-01T16:22:33;10.00;99.90
20125;DHT22;10223;50.862;4.360;2023-04-01T16:25:20;10.00;99.90
20125;DHT22;10223;50.862;4.360;2023-04-01T16:28:09;10.00;99.90
20125;DHT22;10223;50.862;4.360;2023-04-01T16:30:45;10.00;99.90
20125;DHT22;10223;50.862;4.360;2023-04-01T16:33:19;10.00;99.90
20125;DHT22;10223;50.862;4.360;2023-04-01T16:35:54;10.00;99.90
20125;DHT22;10223;50.862;4.360;2023-04-01T16:38:25;10.00;99.90
20125;DHT22;10223;50.862;4.360;2023-04-01T16:41:05;10.10;99.90
20125;DHT22;10223;50.862;4.360;2023-04-01T16:43:40;10.00;99.90
20125;DHT22;10223;50.862;4.360;2023-04-01T16:46:35;9.90;99.90
20125;DHT22;10223;50.862;4.360;2023-04-01T16:49:23;10.00;99.90
20125;DHT22;10223;50.862;4.360;2023-04-01T16:51:53;10.00;99.90
20125;DHT22;10223;50.862;4.360;2023-04-01T16:54:28;10.10;99.90
20125;DHT22;10223;50.862;4.360;2023-04-01T16:57:10;10.10;99.90
20125;DHT22;10223;50.862;4.360;2023-04-01T16:59:46;10.10;99.90
20125;DHT22;10223;50.862;4.360;2023-04-01T17:02:17;10.10;99.90
20125;DHT22;10223;50.862;4.360;2023-04-01T17:04:48;10.10;99.90
20125;DHT22;10223;50.862;4.360;2023-04-01T17:07:26;9.90;99.90
20125;DHT22;10223;50.862;4.360;2023-04-01T17:10:06;10.10;99.90
20125;DHT22;10223;50.862;4.360;2023-04-01T17:12:43;10.00;99.90
20125;DHT22;10223;50.862;4.360;2023-04-01T17:15:17;10.00;99.90
20125;DHT22;10223;50.862;4.360;2023-04-01T17:17:54;10.00;99.90
20125;DHT22;10223;50.862;4.360;2023-04-01T17:20:42;9.90;99.90
20125;DHT22;10223;50.862;4.360;2023-04-01T17:23:19;9.80;99.90
20125;DHT22;10223;50.862;4.360;2023-04-01T17:26:05;9.80;99.90
20125;DHT22;10223;50.862;4.360;2023-04-01T17:28:44;9.70;99.90
20125;DHT22;10223;50.862;4.360;2023-04-01T17:31:21;9.80;99.90
20125;DHT22;10223;50.862;4.360;2023-04-01T17:34:10;9.90;99.90
20125;DHT22;10223;50.862;4.360;2023-04-01T17:36:56;9.80;99.90
20125;DHT22;10223;50.862;4.360;2023-04-01T17:39:42;9.90;99.90
20125;DHT22;10223;50.862;4.360;2023-04-01T17:42:21;9.80;99.90
20125;DHT22;10223;50.862;4.360;2023-04-01T17:44:54;9.80;99.90
20125;DHT22;10223;50.862;4.360;2023-04-01T17:47:44;9.90;99.90
20125;DHT22;10223;50.862;4.360;2023-04-01T17:50:27;9.90;99.90
20125;DHT22;10223;50.862;4.360;2023-04-01T17:53:08;9.90;99.90
20125;DHT22;10223;50.862;4.360;2023-04-01T17:55:48;9.80;99.90
20125;DHT22;10223;50.862;4.360;2023-04-01T17:58:19;9.80;99.90
20125;DHT22;10223;50.862;4.360;2023-04-01T18:00:56;9.80;99.90
20125;DHT22;10223;50.862;4.360;2023-04-01T18:03:37;9.80;99.90
20125;DHT22;10223;50.862;4.360;2023-04-01T18:06:14;9.80;99.90
20125;DHT22;10223;50.862;4.360;2023-04-01T18:08:56;9.90;99.90
20125;DHT22;10223;50.862;4.360;2023-04-01T18:11:34;9.90;99.90
20125;DHT22;10223;50.862;4.360;2023-04-01T18:14:36;9.90;99.90